KSDF Airport Diagram

We have created a template for each of the higher traffic airports in the vZID airspace. They include KCMH, KCRW, KCVG, KDAY, KIND, KLEX and KSDF. You wil find usefull information including the airport diagram, weather, and specific airport procedures.

KSDF Weather

[Source: ADDS]
METAR
KSDF 211756Z 09011G19KT 10SM FEW130 FEW180 BKN250 22/13 A2997 RMK AO2 SLP147 T02220128 10222 20128 58027 =
KSDF 211720Z 2118/2224 09012KT P6SM BKN150 FM220500 15010KT P6SM SCT060 BKN250 WS020/19040KT FM221400 20016G24KT P6SM SCT040 OVC120
TAF
KSDF 211720Z 2118/2224 09012KT P6SM BKN150 FM220500 15010KT P6SM SCT060 BKN250 WS020/19040KT FM221400 20016G24KT P6SM SCT040 OVC120 =

KSDF Operations

Calm Wind Configuration is runways 17L and 17R.

Runway 17L typically departs north and east.

Runway 17R typicall departs south and west.

 

JSN Epic template designed by JoomlaShine.com